sensor_id;sensor_type;location;lat;lon;timestamp;pressure;altitude;pressure_sealevel;temperature;humidity
53659;BME280;41524;35.624;139.698;2023-07-09T00:00:16;100399.00;;;28.97;60.20
53659;BME280;41524;35.624;139.698;2023-07-09T00:05:13;100408.00;;;28.25;62.10
53659;BME280;41524;35.624;139.698;2023-07-09T00:10:19;100405.00;;;28.16;62.66
53659;BME280;41524;35.624;139.698;2023-07-09T00:15:17;100395.00;;;28.56;62.55
53659;BME280;41524;35.624;139.698;2023-07-09T00:20:18;100396.00;;;28.75;61.40
53659;BME280;41524;35.624;139.698;2023-07-09T00:25:17;100394.00;;;28.72;61.43
53659;BME280;41524;35.624;139.698;2023-07-09T00:30:16;100393.00;;;29.78;58.89
53659;BME280;41524;35.624;139.698;2023-07-09T00:35:11;100389.00;;;28.62;60.59
53659;BME280;41524;35.624;139.698;2023-07-09T00:40:18;100390.00;;;28.16;62.24
53659;BME280;41524;35.624;139.698;2023-07-09T00:45:20;100385.00;;;29.03;60.47
53659;BME280;41524;35.624;139.698;2023-07-09T00:50:20;100370.00;;;28.89;60.42
53659;BME280;41524;35.624;139.698;2023-07-09T00:55:20;100366.00;;;27.93;61.90
53659;BME280;41524;35.624;139.698;2023-07-09T01:00:24;100368.00;;;28.55;61.80
53659;BME280;41524;35.624;139.698;2023-07-09T01:05:12;100368.00;;;28.52;62.19
53659;BME280;41524;35.624;139.698;2023-07-09T01:10:24;100380.00;;;28.81;61.90
53659;BME280;41524;35.624;139.698;2023-07-09T01:15:17;100379.00;;;28.51;62.69
53659;BME280;41524;35.624;139.698;2023-07-09T01:20:19;100390.00;;;29.02;62.16
53659;BME280;41524;35.624;139.698;2023-07-09T01:25:21;100391.00;;;28.50;62.80
53659;BME280;41524;35.624;139.698;2023-07-09T01:30:13;100387.00;;;28.47;63.25
53659;BME280;41524;35.624;139.698;2023-07-09T01:35:12;100376.00;;;28.30;63.67
53659;BME280;41524;35.624;139.698;2023-07-09T01:40:14;100370.00;;;29.03;62.14
53659;BME280;41524;35.624;139.698;2023-07-09T01:45:16;100353.00;;;29.07;61.24
53659;BME280;41524;35.624;139.698;2023-07-09T01:50:17;100353.00;;;28.41;62.68
53659;BME280;41524;35.624;139.698;2023-07-09T01:55:13;100355.00;;;30.00;59.58
53659;BME280;41524;35.624;139.698;2023-07-09T02:00:17;100353.00;;;28.31;62.53
53659;BME280;41524;35.624;139.698;2023-07-09T02:05:18;100359.00;;;28.68;62.00
53659;BME280;41524;35.624;139.698;2023-07-09T02:10:20;100363.00;;;28.45;62.67
53659;BME280;41524;35.624;139.698;2023-07-09T02:15:13;100357.00;;;28.14;63.12
53659;BME280;41524;35.624;139.698;2023-07-09T02:20:12;100360.00;;;28.91;61.75
53659;BME280;41524;35.624;139.698;2023-07-09T02:25:11;100363.00;;;28.36;62.62
53659;BME280;41524;35.624;139.698;2023-07-09T02:30:11;100353.00;;;28.05;63.53
53659;BME280;41524;35.624;139.698;2023-07-09T02:35:17;100358.00;;;28.45;62.88
53659;BME280;41524;35.624;139.698;2023-07-09T02:40:13;100352.00;;;27.83;64.77
53659;BME280;41524;35.624;139.698;2023-07-09T02:45:11;100347.00;;;28.44;63.97
53659;BME280;41524;35.624;139.698;2023-07-09T02:50:11;100354.00;;;28.84;62.58
53659;BME280;41524;35.624;139.698;2023-07-09T02:55:17;100345.00;;;28.03;65.17
53659;BME280;41524;35.624;139.698;2023-07-09T03:00:13;100324.00;;;27.77;65.91
53659;BME280;41524;35.624;139.698;2023-07-09T03:05:12;100328.00;;;27.49;66.61
53659;BME280;41524;35.624;139.698;2023-07-09T03:10:16;100323.00;;;28.03;65.49
53659;BME280;41524;35.624;139.698;2023-07-09T03:15:13;100332.00;;;28.30;64.52
53659;BME280;41524;35.624;139.698;2023-07-09T03:20:16;100330.00;;;27.74;66.42
53659;BME280;41524;35.624;139.698;2023-07-09T03:25:11;100326.00;;;27.70;65.81
53659;BME280;41524;35.624;139.698;2023-07-09T03:30:16;100318.00;;;27.45;66.79
53659;BME280;41524;35.624;139.698;2023-07-09T03:35:11;100312.00;;;27.65;66.46
53659;BME280;41524;35.624;139.698;2023-07-09T03:40:20;100306.00;;;26.77;68.26
53659;BME280;41524;35.624;139.698;2023-07-09T03:45:11;100304.00;;;27.35;67.13
53659;BME280;41524;35.624;139.698;2023-07-09T03:50:12;100307.00;;;27.79;65.31
53659;BME280;41524;35.624;139.698;2023-07-09T03:55:17;100307.00;;;28.47;63.68
53659;BME280;41524;35.624;139.698;2023-07-09T04:00:16;100297.00;;;27.87;65.63
53659;BME280;41524;35.624;139.698;2023-07-09T04:05:16;100295.00;;;27.99;65.65
53659;BME280;41524;35.624;139.698;2023-07-09T04:10:24;100302.00;;;27.90;65.29
53659;BME280;41524;35.624;139.698;2023-07-09T04:15:12;100307.00;;;28.21;64.41
53659;BME280;41524;35.624;139.698;2023-07-09T04:20:12;100304.00;;;26.60;68.78
53659;BME280;41524;35.624;139.698;2023-07-09T04:25:12;100297.00;;;27.24;67.30
53659;BME280;41524;35.624;139.698;2023-07-09T04:30:13;100298.00;;;27.62;66.74
53659;BME280;41524;35.624;139.698;2023-07-09T04:35:13;100303.00;;;27.11;67.24
53659;BME280;41524;35.624;139.698;2023-07-09T04:40:12;100296.00;;;27.52;66.73
53659;BME280;41524;35.624;139.698;2023-07-09T04:45:17;100292.00;;;27.96;65.56
53659;BME280;41524;35.624;139.698;2023-07-09T04:50:17;100289.00;;;28.00;65.05
53659;BME280;41524;35.624;139.698;2023-07-09T04:55:11;100282.00;;;27.60;65.76
53659;BME280;41524;35.624;139.698;2023-07-09T05:00:17;100279.00;;;27.46;66.59
53659;BME280;41524;35.624;139.698;2023-07-09T05:05:11;100280.00;;;27.75;65.85
53659;BME280;41524;35.624;139.698;2023-07-09T05:10:11;100289.00;;;27.60;65.27
53659;BME280;41524;35.624;139.698;2023-07-09T05:15:11;100308.00;;;28.32;64.74
53659;BME280;41524;35.624;139.698;2023-07-09T05:20:11;100296.00;;;27.79;64.85
53659;BME280;41524;35.624;139.698;2023-07-09T05:25:11;100311.00;;;27.83;64.98
53659;BME280;41524;35.624;139.698;2023-07-09T05:30:13;100319.00;;;28.27;64.09
53659;BME280;41524;35.624;139.698;2023-07-09T05:35:13;100308.00;;;27.89;64.36
53659;BME280;41524;35.624;139.698;2023-07-09T05:40:17;100303.00;;;28.86;62.05
53659;BME280;41524;35.624;139.698;2023-07-09T05:45:16;100302.00;;;28.45;62.92
53659;BME280;41524;35.624;139.698;2023-07-09T05:50:11;100306.00;;;28.97;62.05
53659;BME280;41524;35.624;139.698;2023-07-09T05:55:16;100305.00;;;28.81;62.53
53659;BME280;41524;35.624;139.698;2023-07-09T06:00:13;100309.00;;;27.85;65.18
53659;BME280;41524;35.624;139.698;2023-07-09T06:05:16;100305.00;;;28.67;64.79
53659;BME280;41524;35.624;139.698;2023-07-09T06:10:12;100305.00;;;28.09;65.52
53659;BME280;41524;35.624;139.698;2023-07-09T06:15:16;100304.00;;;27.78;66.27
53659;BME280;41524;35.624;139.698;2023-07-09T06:20:11;100295.00;;;27.10;68.01
53659;BME280;41524;35.624;139.698;2023-07-09T06:25:15;100309.00;;;27.81;67.40
53659;BME280;41524;35.624;139.698;2023-07-09T06:30:16;100303.00;;;27.49;68.25
53659;BME280;41524;35.624;139.698;2023-07-09T06:35:10;100291.00;;;27.67;68.02
53659;BME280;41524;35.624;139.698;2023-07-09T06:40:13;100298.00;;;27.12;69.15
53659;BME280;41524;35.624;139.698;2023-07-09T06:45:11;100293.00;;;27.06;69.20
53659;BME280;41524;35.624;139.698;2023-07-09T06:50:11;100298.00;;;26.65;69.96
53659;BME280;41524;35.624;139.698;2023-07-09T06:55:17;100294.00;;;26.28;71.33
53659;BME280;41524;35.624;139.698;2023-07-09T07:00:16;100299.00;;;26.87;70.12
53659;BME280;41524;35.624;139.698;2023-07-09T07:05:16;100296.00;;;27.06;68.90
53659;BME280;41524;35.624;139.698;2023-07-09T07:10:15;100302.00;;;26.42;70.42
53659;BME280;41524;35.624;139.698;2023-07-09T07:15:12;100301.00;;;26.89;69.03
53659;BME280;41524;35.624;139.698;2023-07-09T07:20:20;100301.00;;;27.59;67.50
53659;BME280;41524;35.624;139.698;2023-07-09T07:25:13;100301.00;;;26.99;68.22
53659;BME280;41524;35.624;139.698;2023-07-09T07:30:11;100309.00;;;27.58;67.24
53659;BME280;41524;35.624;139.698;2023-07-09T07:35:11;100307.00;;;26.91;68.65
53659;BME280;41524;35.624;139.698;2023-07-09T07:40:13;100305.00;;;27.59;66.62
53659;BME280;41524;35.624;139.698;2023-07-09T07:45:22;100303.00;;;26.74;68.20
53659;BME280;41524;35.624;139.698;2023-07-09T07:50:16;100294.00;;;26.77;68.23
53659;BME280;41524;35.624;139.698;2023-07-09T07:55:21;100298.00;;;26.98;67.55
53659;BME280;41524;35.624;139.698;2023-07-09T08:00:18;100287.00;;;27.28;66.21
53659;BME280;41524;35.624;139.698;2023-07-09T08:05:17;100286.00;;;26.79;67.70
53659;BME280;41524;35.624;139.698;2023-07-09T08:10:12;100285.00;;;27.17;66.27
53659;BME280;41524;35.624;139.698;2023-07-09T08:15:11;100288.00;;;26.08;69.04
53659;BME280;41524;35.624;139.698;2023-07-09T08:20:11;100286.00;;;25.98;69.52
53659;BME280;41524;35.624;139.698;2023-07-09T08:25:11;100293.00;;;26.30;68.74
53659;BME280;41524;35.624;139.698;2023-07-09T08:30:11;100302.00;;;26.44;68.51
53659;BME280;41524;35.624;139.698;2023-07-09T08:35:11;100300.00;;;25.62;70.46
53659;BME280;41524;35.624;139.698;2023-07-09T08:40:14;100301.00;;;26.38;68.66
53659;BME280;41524;35.624;139.698;2023-07-09T08:45:24;100304.00;;;26.69;68.13
53659;BME280;41524;35.624;139.698;2023-07-09T08:50:15;100296.00;;;26.57;68.16
53659;BME280;41524;35.624;139.698;2023-07-09T08:55:20;100304.00;;;26.56;68.18
53659;BME280;41524;35.624;139.698;2023-07-09T09:00:27;100305.00;;;26.23;68.91
53659;BME280;41524;35.624;139.698;2023-07-09T09:05:13;100309.00;;;25.82;69.79
53659;BME280;41524;35.624;139.698;2023-07-09T09:10:29;100320.00;;;26.63;67.46
53659;BME280;41524;35.624;139.698;2023-07-09T09:15:18;100322.00;;;26.73;67.50
53659;BME280;41524;35.624;139.698;2023-07-09T09:20:19;100324.00;;;26.71;68.12
53659;BME280;41524;35.624;139.698;2023-07-09T09:25:23;100324.00;;;26.52;68.03
53659;BME280;41524;35.624;139.698;2023-07-09T09:30:24;100328.00;;;26.67;68.62
53659;BME280;41524;35.624;139.698;2023-07-09T09:35:16;100332.00;;;26.15;69.47
53659;BME280;41524;35.624;139.698;2023-07-09T09:40:11;100332.00;;;26.01;69.44
53659;BME280;41524;35.624;139.698;2023-07-09T09:45:18;100329.00;;;26.36;68.42
53659;BME280;41524;35.624;139.698;2023-07-09T09:50:17;100303.00;;;26.35;68.33
53659;BME280;41524;35.624;139.698;2023-07-09T09:55:15;100295.00;;;27.72;65.76
53659;BME280;41524;35.624;139.698;2023-07-09T10:00:16;100292.00;;;25.54;70.87
53659;BME280;41524;35.624;139.698;2023-07-09T10:05:19;100287.00;;;25.78;70.61
53659;BME280;41524;35.624;139.698;2023-07-09T10:10:15;100288.00;;;25.55;70.40
53659;BME280;41524;35.624;139.698;2023-07-09T10:15:24;100290.00;;;25.68;69.98
53659;BME280;41524;35.624;139.698;2023-07-09T10:20:23;100293.00;;;26.17;69.30
53659;BME280;41524;35.624;139.698;2023-07-09T10:25:20;100298.00;;;26.04;68.98
53659;BME280;41524;35.624;139.698;2023-07-09T10:30:25;100282.00;;;26.11;68.49
53659;BME280;41524;35.624;139.698;2023-07-09T10:35:26;100322.00;;;25.93;69.43
53659;BME280;41524;35.624;139.698;2023-07-09T10:40:13;100294.00;;;25.80;70.82
53659;BME280;41524;35.624;139.698;2023-07-09T10:45:19;100273.00;;;25.57;70.80
53659;BME280;41524;35.624;139.698;2023-07-09T10:50:17;100291.00;;;26.10;69.26
53659;BME280;41524;35.624;139.698;2023-07-09T10:55:17;100286.00;;;26.20;69.63
53659;BME280;41524;35.624;139.698;2023-07-09T11:00:19;100306.00;;;25.79;70.33
53659;BME280;41524;35.624;139.698;2023-07-09T11:05:11;100305.00;;;25.93;70.06
53659;BME280;41524;35.624;139.698;2023-07-09T11:10:22;100318.00;;;25.90;69.80
53659;BME280;41524;35.624;139.698;2023-07-09T11:15:27;100342.00;;;25.97;69.68
53659;BME280;41524;35.624;139.698;2023-07-09T11:20:19;100336.00;;;26.31;68.88
53659;BME280;41524;35.624;139.698;2023-07-09T11:25:14;100345.00;;;25.71;71.67
53659;BME280;41524;35.624;139.698;2023-07-09T11:30:28;100334.00;;;25.30;72.49
53659;BME280;41524;35.624;139.698;2023-07-09T11:35:27;100337.00;;;25.30;72.38
53659;BME280;41524;35.624;139.698;2023-07-09T11:40:13;100330.00;;;25.48;71.36
53659;BME280;41524;35.624;139.698;2023-07-09T11:45:17;100328.00;;;25.36;72.36
53659;BME280;41524;35.624;139.698;2023-07-09T11:50:22;100329.00;;;25.45;71.64
53659;BME280;41524;35.624;139.698;2023-07-09T11:55:26;100337.00;;;25.33;71.80
53659;BME280;41524;35.624;139.698;2023-07-09T12:00:12;100331.00;;;25.49;71.28
53659;BME280;41524;35.624;139.698;2023-07-09T12:05:20;100334.00;;;25.65;70.00
53659;BME280;41524;35.624;139.698;2023-07-09T12:10:20;100341.00;;;25.44;69.86
53659;BME280;41524;35.624;139.698;2023-07-09T12:15:18;100346.00;;;24.98;71.55
53659;BME280;41524;35.624;139.698;2023-07-09T12:20:16;100359.00;;;25.42;70.23
53659;BME280;41524;35.624;139.698;2023-07-09T12:25:18;100349.00;;;25.58;69.86
53659;BME280;41524;35.624;139.698;2023-07-09T12:30:12;100345.00;;;25.97;68.28
53659;BME280;41524;35.624;139.698;2023-07-09T12:35:21;100342.00;;;25.76;69.32
53659;BME280;41524;35.624;139.698;2023-07-09T12:40:16;100345.00;;;25.43;69.28
53659;BME280;41524;35.624;139.698;2023-07-09T12:45:16;100350.00;;;25.81;67.80
53659;BME280;41524;35.624;139.698;2023-07-09T12:50:22;100348.00;;;25.85;68.10
53659;BME280;41524;35.624;139.698;2023-07-09T12:55:41;100349.00;;;25.74;68.10
53659;BME280;41524;35.624;139.698;2023-07-09T13:05:22;100357.00;;;26.05;67.33
53659;BME280;41524;35.624;139.698;2023-07-09T13:10:19;100354.00;;;26.18;66.66
53659;BME280;41524;35.624;139.698;2023-07-09T13:15:39;100349.00;;;26.32;65.95
53659;BME280;41524;35.624;139.698;2023-07-09T13:20:11;100358.00;;;27.25;63.38
53659;BME280;41524;35.624;139.698;2023-07-09T13:25:10;100354.00;;;27.16;63.69
53659;BME280;41524;35.624;139.698;2023-07-09T13:30:11;100347.00;;;26.29;65.87
53659;BME280;41524;35.624;139.698;2023-07-09T13:35:16;100343.00;;;26.24;65.99
53659;BME280;41524;35.624;139.698;2023-07-09T13:40:13;100341.00;;;26.10;67.36
53659;BME280;41524;35.624;139.698;2023-07-09T13:45:23;100320.00;;;26.01;68.51
53659;BME280;41524;35.624;139.698;2023-07-09T13:50:12;100325.00;;;25.73;69.70
53659;BME280;41524;35.624;139.698;2023-07-09T13:55:18;100323.00;;;25.86;69.01
53659;BME280;41524;35.624;139.698;2023-07-09T14:00:16;100341.00;;;26.79;66.22
53659;BME280;41524;35.624;139.698;2023-07-09T14:05:17;100337.00;;;26.93;66.40
53659;BME280;41524;35.624;139.698;2023-07-09T14:10:13;100346.00;;;27.46;64.30
53659;BME280;41524;35.624;139.698;2023-07-09T14:15:22;100335.00;;;27.37;64.36
53659;BME280;41524;35.624;139.698;2023-07-09T14:20:12;100334.00;;;26.81;65.70
53659;BME280;41524;35.624;139.698;2023-07-09T14:25:21;100327.00;;;27.72;63.64
53659;BME280;41524;35.624;139.698;2023-07-09T14:30:15;100339.00;;;26.96;64.75
53659;BME280;41524;35.624;139.698;2023-07-09T14:35:14;100335.00;;;26.68;66.22
53659;BME280;41524;35.624;139.698;2023-07-09T14:40:18;100339.00;;;26.31;67.93
53659;BME280;41524;35.624;139.698;2023-07-09T14:45:19;100341.00;;;26.16;68.50
53659;BME280;41524;35.624;139.698;2023-07-09T14:50:19;100330.00;;;26.06;68.49
53659;BME280;41524;35.624;139.698;2023-07-09T14:55:15;100333.00;;;25.81;69.72
53659;BME280;41524;35.624;139.698;2023-07-09T15:00:20;100335.00;;;26.12;68.90
53659;BME280;41524;35.624;139.698;2023-07-09T15:05:17;100341.00;;;25.46;71.00
53659;BME280;41524;35.624;139.698;2023-07-09T15:10:20;100351.00;;;26.60;67.79
53659;BME280;41524;35.624;139.698;2023-07-09T15:15:16;100348.00;;;25.89;68.62
53659;BME280;41524;35.624;139.698;2023-07-09T15:25:14;100349.00;;;25.98;68.63
53659;BME280;41524;35.624;139.698;2023-07-09T15:30:16;100362.00;;;25.97;68.18
53659;BME280;41524;35.624;139.698;2023-07-09T15:35:13;100357.00;;;25.28;70.34
53659;BME280;41524;35.624;139.698;2023-07-09T15:40:18;100356.00;;;26.21;67.92
53659;BME280;41524;35.624;139.698;2023-07-09T15:45:17;100354.00;;;26.73;66.99
53659;BME280;41524;35.624;139.698;2023-07-09T15:50:18;100354.00;;;26.42;66.58
53659;BME280;41524;35.624;139.698;2023-07-09T15:55:18;100353.00;;;25.75;68.58
53659;BME280;41524;35.624;139.698;2023-07-09T16:00:19;100355.00;;;25.49;69.70
53659;BME280;41524;35.624;139.698;2023-07-09T16:05:18;100359.00;;;26.32;67.65
53659;BME280;41524;35.624;139.698;2023-07-09T16:10:12;100364.00;;;26.16;67.59
53659;BME280;41524;35.624;139.698;2023-07-09T16:15:12;100363.00;;;26.02;67.85
53659;BME280;41524;35.624;139.698;2023-07-09T16:20:12;100362.00;;;25.10;70.14
53659;BME280;41524;35.624;139.698;2023-07-09T16:25:15;100356.00;;;25.90;68.39
53659;BME280;41524;35.624;139.698;2023-07-09T16:30:15;100366.00;;;25.64;69.22
53659;BME280;41524;35.624;139.698;2023-07-09T16:35:13;100360.00;;;25.49;68.92
53659;BME280;41524;35.624;139.698;2023-07-09T16:40:16;100362.00;;;25.30;69.29
53659;BME280;41524;35.624;139.698;2023-07-09T16:45:12;100354.00;;;26.40;66.52
53659;BME280;41524;35.624;139.698;2023-07-09T16:50:14;100369.00;;;27.18;64.16
53659;BME280;41524;35.624;139.698;2023-07-09T16:55:14;100367.00;;;26.97;64.13
53659;BME280;41524;35.624;139.698;2023-07-09T17:00:23;100361.00;;;26.08;65.84
53659;BME280;41524;35.624;139.698;2023-07-09T17:05:12;100361.00;;;25.10;68.68
53659;BME280;41524;35.624;139.698;2023-07-09T17:10:16;100354.00;;;26.06;66.81
53659;BME280;41524;35.624;139.698;2023-07-09T17:15:23;100352.00;;;27.00;63.99
53659;BME280;41524;35.624;139.698;2023-07-09T17:20:13;100360.00;;;27.37;63.29
53659;BME280;41524;35.624;139.698;2023-07-09T17:25:35;100368.00;;;26.03;65.69
53659;BME280;41524;35.624;139.698;2023-07-09T17:30:16;100365.00;;;25.61;66.10
53659;BME280;41524;35.624;139.698;2023-07-09T17:35:12;100360.00;;;26.09;65.06
53659;BME280;41524;35.624;139.698;2023-07-09T17:45:14;100368.00;;;25.84;67.46
53659;BME280;41524;35.624;139.698;2023-07-09T17:50:15;100361.00;;;26.36;65.23
53659;BME280;41524;35.624;139.698;2023-07-09T17:55:13;100352.00;;;26.70;64.26
53659;BME280;41524;35.624;139.698;2023-07-09T18:00:20;100354.00;;;27.49;61.82
53659;BME280;41524;35.624;139.698;2023-07-09T18:05:24;100375.00;;;28.31;59.84
53659;BME280;41524;35.624;139.698;2023-07-09T18:10:11;100367.00;;;26.49;62.82
53659;BME280;41524;35.624;139.698;2023-07-09T18:15:17;100362.00;;;26.33;64.10
53659;BME280;41524;35.624;139.698;2023-07-09T18:20:17;100365.00;;;25.44;66.51
53659;BME280;41524;35.624;139.698;2023-07-09T18:25:11;100358.00;;;25.62;67.08
53659;BME280;41524;35.624;139.698;2023-07-09T18:30:17;100366.00;;;24.07;70.68
53659;BME280;41524;35.624;139.698;2023-07-09T18:35:20;100362.00;;;24.93;69.06
53659;BME280;41524;35.624;139.698;2023-07-09T18:40:12;100370.00;;;25.30;68.45
53659;BME280;41524;35.624;139.698;2023-07-09T18:45:14;100372.00;;;26.30;66.05
53659;BME280;41524;35.624;139.698;2023-07-09T18:50:16;100373.00;;;26.61;64.99
53659;BME280;41524;35.624;139.698;2023-07-09T18:55:19;100374.00;;;26.17;66.04
53659;BME280;41524;35.624;139.698;2023-07-09T19:00:18;100370.00;;;24.79;69.64
53659;BME280;41524;35.624;139.698;2023-07-09T19:05:14;100374.00;;;25.56;68.21
53659;BME280;41524;35.624;139.698;2023-07-09T19:10:18;100383.00;;;25.32;68.61
53659;BME280;41524;35.624;139.698;2023-07-09T19:15:11;100405.00;;;26.27;66.33
53659;BME280;41524;35.624;139.698;2023-07-09T19:20:16;100426.00;;;27.58;62.58
53659;BME280;41524;35.624;139.698;2023-07-09T19:25:15;100436.00;;;25.50;67.26
53659;BME280;41524;35.624;139.698;2023-07-09T19:30:13;100430.00;;;25.80;66.20
53659;BME280;41524;35.624;139.698;2023-07-09T19:35:17;100433.00;;;25.08;68.11
53659;BME280;41524;35.624;139.698;2023-07-09T19:40:18;100427.00;;;25.48;67.75
53659;BME280;41524;35.624;139.698;2023-07-09T19:45:18;100437.00;;;27.30;63.94
53659;BME280;41524;35.624;139.698;2023-07-09T19:50:23;100442.00;;;26.44;64.88
53659;BME280;41524;35.624;139.698;2023-07-09T19:55:18;100442.00;;;26.53;64.87
53659;BME280;41524;35.624;139.698;2023-07-09T20:00:17;100451.00;;;26.86;63.94
53659;BME280;41524;35.624;139.698;2023-07-09T20:05:20;100464.00;;;24.77;68.90
53659;BME280;41524;35.624;139.698;2023-07-09T20:10:11;100461.00;;;27.01;63.80
53659;BME280;41524;35.624;139.698;2023-07-09T20:15:22;100456.00;;;26.56;64.65
53659;BME280;41524;35.624;139.698;2023-07-09T20:20:13;100458.00;;;26.06;65.86
53659;BME280;41524;35.624;139.698;2023-07-09T20:25:16;100445.00;;;25.18;67.55
53659;BME280;41524;35.624;139.698;2023-07-09T20:30:14;100451.00;;;25.27;68.33
53659;BME280;41524;35.624;139.698;2023-07-09T20:35:16;100461.00;;;26.13;65.99
53659;BME280;41524;35.624;139.698;2023-07-09T20:40:14;100472.00;;;26.54;64.91
53659;BME280;41524;35.624;139.698;2023-07-09T20:45:17;100459.00;;;26.21;65.45
53659;BME280;41524;35.624;139.698;2023-07-09T20:50:14;100462.00;;;26.69;64.70
53659;BME280;41524;35.624;139.698;2023-07-09T20:55:18;100470.00;;;26.44;65.32
53659;BME280;41524;35.624;139.698;2023-07-09T21:00:15;100470.00;;;26.10;65.04
53659;BME280;41524;35.624;139.698;2023-07-09T21:05:17;100474.00;;;26.71;64.32
53659;BME280;41524;35.624;139.698;2023-07-09T21:10:17;100472.00;;;26.04;65.72
53659;BME280;41524;35.624;139.698;2023-07-09T21:15:13;100480.00;;;26.04;65.73
53659;BME280;41524;35.624;139.698;2023-07-09T21:20:16;100482.00;;;26.48;64.33
53659;BME280;41524;35.624;139.698;2023-07-09T21:25:22;100490.00;;;25.78;66.01
53659;BME280;41524;35.624;139.698;2023-07-09T21:30:11;100489.00;;;26.82;63.85
53659;BME280;41524;35.624;139.698;2023-07-09T21:35:17;100496.00;;;25.49;66.03
53659;BME280;41524;35.624;139.698;2023-07-09T21:40:28;100493.00;;;26.00;64.98
53659;BME280;41524;35.624;139.698;2023-07-09T21:45:26;100493.00;;;26.47;64.31
53659;BME280;41524;35.624;139.698;2023-07-09T21:50:17;100490.00;;;26.45;63.97
53659;BME280;41524;35.624;139.698;2023-07-09T21:55:15;100485.00;;;26.71;63.50
53659;BME280;41524;35.624;139.698;2023-07-09T22:00:23;100487.00;;;26.98;62.68
53659;BME280;41524;35.624;139.698;2023-07-09T22:05:16;100489.00;;;27.00;63.36
53659;BME280;41524;35.624;139.698;2023-07-09T22:10:13;100494.00;;;27.14;63.24
53659;BME280;41524;35.624;139.698;2023-07-09T22:15:20;100501.00;;;26.98;62.61
53659;BME280;41524;35.624;139.698;2023-07-09T22:20:23;100496.00;;;28.29;59.88
53659;BME280;41524;35.624;139.698;2023-07-09T22:25:16;100495.00;;;27.17;62.61
53659;BME280;41524;35.624;139.698;2023-07-09T22:30:21;100497.00;;;28.15;60.63
53659;BME280;41524;35.624;139.698;2023-07-09T22:35:14;100500.00;;;27.74;60.23
53659;BME280;41524;35.624;139.698;2023-07-09T22:40:22;100499.00;;;26.86;62.45
53659;BME280;41524;35.624;139.698;2023-07-09T22:45:11;100493.00;;;26.75;62.31
53659;BME280;41524;35.624;139.698;2023-07-09T22:50:15;100484.00;;;28.39;58.70
53659;BME280;41524;35.624;139.698;2023-07-09T22:55:50;100495.00;;;26.90;61.49
53659;BME280;41524;35.624;139.698;2023-07-09T23:00:12;100488.00;;;28.53;57.98
53659;BME280;41524;35.624;139.698;2023-07-09T23:10:11;100495.00;;;28.47;58.11
53659;BME280;41524;35.624;139.698;2023-07-09T23:15:23;100485.00;;;28.65;57.06
53659;BME280;41524;35.624;139.698;2023-07-09T23:20:14;100489.00;;;28.31;57.85
53659;BME280;41524;35.624;139.698;2023-07-09T23:25:22;100481.00;;;29.82;54.66
53659;BME280;41524;35.624;139.698;2023-07-09T23:30:26;100482.00;;;29.05;55.45
53659;BME280;41524;35.624;139.698;2023-07-09T23:35:14;100484.00;;;28.20;57.02
53659;BME280;41524;35.624;139.698;2023-07-09T23:40:11;100473.00;;;30.04;53.70
53659;BME280;41524;35.624;139.698;2023-07-09T23:45:20;100458.00;;;30.51;53.44
53659;BME280;41524;35.624;139.698;2023-07-09T23:50:14;100462.00;;;30.03;53.81
53659;BME280;41524;35.624;139.698;2023-07-09T23:55:17;100467.00;;;29.05;55.08
